This is the latest recevied weather packets stored in our database for station/object KG5WBN. If no packets are shown the sender has not sent any weather packets the latest 10 day(s).
| Time | Temp. | Humidity | Pressure | Rain* | Wind** | Luminosity | Snow |
|---|---|---|---|---|---|---|---|
| 1787409868 | 27.22° C | 99% | 1015.6 hPa | 0 mm | - | 181 W/m² | - |
| 1787409563 | 27.22° C | 99% | 1015.9 hPa | 0 mm | - | 172 W/m² | - |
| 1787409259 | 26.67° C | 99% | 1015.6 hPa | 0 mm | - | 160 W/m² | - |
| 1787408955 | 25.56° C | 99% | 1015.6 hPa | 0 mm | - | 95 W/m² | - |
| 1787408650 | 27.22° C | 99% | 1015.9 hPa | 0 mm | - | 142 W/m² | - |
| 1787408344 | 27.22° C | 99% | 1015.9 hPa | 0 mm | - | 135 W/m² | - |
| 1787408040 | 27.22° C | 99% | 1015.9 hPa | 0 mm | - | 126 W/m² | - |
| 1787407736 | 27.78° C | 99% | 1015.9 hPa | 0 mm | - | 119 W/m² | - |
| 1787407431 | 27.78° C | 99% | 1015.9 hPa | 0 mm | - | 111 W/m² | - |
| 1787407126 | 27.78° C | 99% | 1015.9 hPa | 0 mm | - | 94 W/m² | - |
| 1787406822 | 27.78° C | 99% | 1016.3 hPa | 0 mm | - | 77 W/m² | - |
| 1787406522 | 27.22° C | 99% | 1016.3 hPa | 0 mm | - | 73 W/m² | - |
| 1787406219 | 26.67° C | 99% | 1016.3 hPa | 0 mm | - | 61 W/m² | - |
| 1787405914 | 26.67° C | 99% | 1016.3 hPa | 0 mm | - | 56 W/m² | - |
| 1787405611 | 27.22° C | 99% | 1016.3 hPa | 0 mm | - | 52 W/m² | - |
| 1787405311 | 27.22° C | 99% | 1016.3 hPa | 0 mm | - | 51 W/m² | - |
| 1787405007 | 26.67° C | 99% | 1016.3 hPa | 0 mm | - | 54 W/m² | - |
| 1787404702 | 26.67° C | 99% | 1016.3 hPa | 0 mm | - | 53 W/m² | - |
| 1787404402 | 26.67° C | 99% | 1016.3 hPa | 0 mm | - | 58 W/m² | - |
| 1787404098 | 26.67° C | 99% | 1016.3 hPa | 0 mm | - | 59 W/m² | - |
| 1787403793 | 26.67° C | 99% | 1016.3 hPa | 0 mm | - | 48 W/m² | - |
| 1787403492 | 26.67° C | 99% | 1016.3 hPa | 0 mm | - | 36 W/m² | - |
| 1787403188 | 26.67° C | 99% | 1016.3 hPa | 0 mm | - | 35 W/m² | - |
| 1787402884 | 26.67° C | 99% | 1016.3 hPa | 0 mm | - | 33 W/m² | - |
| 1787402579 | 26.67° C | 99% | 1016.3 hPa | 0 mm | - | 30 W/m² | - |
* Rain latest hour (hover to see other rain measurements)
** Current wind speed in m/s (hover to see current wind gust speed)